createdAt,value
2023-12-09T00:00:21.253Z,100428.34
2023-12-09T00:02:47.645Z,100494.63
2023-12-09T00:05:14.168Z,100473.31
2023-12-09T00:07:40.566Z,100408.06
2023-12-09T00:10:07.387Z,100433.13
2023-12-09T00:12:34.024Z,100431.88
2023-12-09T00:15:00.521Z,100415.59
2023-12-09T00:17:27.298Z,100467.22
2023-12-09T00:19:53.773Z,100356.97
2023-12-09T00:22:20.192Z,100470.59
2023-12-09T00:24:46.608Z,100406.19
2023-12-09T00:27:13.016Z,100409.50
2023-12-09T00:29:39.426Z,100467.22
2023-12-09T00:32:06.244Z,100489.66
2023-12-09T00:34:32.774Z,100459.56
2023-12-09T00:36:59.137Z,100487.94
2023-12-09T00:39:25.557Z,100476.81
2023-12-09T00:41:51.972Z,100404.38
2023-12-09T00:44:21.978Z,100419.19
2023-12-09T00:46:48.373Z,100480.25
2023-12-09T00:49:15.459Z,100498.28
2023-12-09T00:51:41.868Z,100443.09
2023-12-09T00:54:08.272Z,100483.66
2023-12-09T00:56:35.630Z,100462.94
2023-12-09T00:59:03.359Z,100451.88
2023-12-09T01:01:29.784Z,100471.59
2023-12-09T01:03:56.286Z,100500.88
2023-12-09T01:06:22.770Z,100467.22
2023-12-09T01:08:51.794Z,100474.16
2023-12-09T01:11:18.344Z,100476.63
2023-12-09T01:13:44.773Z,100481.84
2023-12-09T01:16:11.570Z,100454.28
2023-12-09T01:18:38.046Z,100446.59
2023-12-09T01:21:04.885Z,100467.22
2023-12-09T01:23:31.609Z,100487.78
2023-12-09T01:25:57.975Z,100444.69
2023-12-09T01:28:24.349Z,100460.22
2023-12-09T01:30:50.716Z,100384.56
2023-12-09T01:33:17.237Z,100388.03
2023-12-09T01:35:43.713Z,100434.41
2023-12-09T01:38:10.118Z,100407.03
2023-12-09T01:40:36.818Z,100396.59
2023-12-09T01:43:03.209Z,100410.22
2023-12-09T01:45:29.619Z,100455.16
2023-12-09T01:47:56.208Z,100455.06
2023-12-09T01:50:22.777Z,100472.31
2023-12-09T01:52:49.262Z,100381.97
2023-12-09T01:55:16.394Z,100437.16
2023-12-09T01:57:43.383Z,100452.47
2023-12-09T02:00:12.183Z,100429.34
2023-12-09T02:02:38.735Z,100440.59
2023-12-09T02:05:06.224Z,100428.34
2023-12-09T02:07:32.739Z,100453.28
2023-12-09T02:09:59.297Z,100448.06
2023-12-09T02:12:36.364Z,100436.91
2023-12-09T02:15:24.838Z,100418.06
2023-12-09T02:17:55.158Z,100423.91
2023-12-09T02:20:22.082Z,100393.00
2023-12-09T02:22:48.525Z,100397.25
2023-12-09T02:25:15.018Z,100425.59
2023-12-09T02:27:50.616Z,100396.25
2023-12-09T02:30:26.552Z,100446.44
2023-12-09T02:32:56.497Z,100393.94
2023-12-09T02:35:25.262Z,100443.00
2023-12-09T02:37:53.225Z,100431.63
2023-12-09T02:40:20.318Z,100379.28
2023-12-09T02:42:48.001Z,100410.47
2023-12-09T02:45:14.437Z,100415.59
2023-12-09T02:47:40.848Z,100418.06
2023-12-09T02:50:07.500Z,100362.19
2023-12-09T02:52:33.923Z,100430.81
2023-12-09T02:55:00.358Z,100404.19
2023-12-09T02:57:26.855Z,100362.97
2023-12-09T02:59:53.324Z,100413.69
2023-12-09T03:02:19.800Z,100313.81
2023-12-09T03:04:46.212Z,100387.75
2023-12-09T03:07:12.764Z,100371.41
2023-12-09T03:09:39.167Z,100387.84
2023-12-09T03:12:06.045Z,100343.00
2023-12-09T03:14:32.503Z,100354.28
2023-12-09T03:16:58.871Z,100373.97
2023-12-09T03:19:25.403Z,100364.50
2023-12-09T03:21:51.815Z,100362.94
2023-12-09T03:24:18.292Z,100279.44
2023-12-09T03:26:44.670Z,100410.25
2023-12-09T03:29:11.051Z,100392.09
2023-12-09T03:31:41.171Z,100358.59
2023-12-09T03:34:07.640Z,100380.88
2023-12-09T03:36:35.999Z,100387.94
2023-12-09T03:39:02.510Z,100358.50
2023-12-09T03:41:28.919Z,100363.03
2023-12-09T03:43:55.279Z,100381.06
2023-12-09T03:46:21.704Z,100369.13
2023-12-09T03:48:48.296Z,100373.31
2023-12-09T03:51:14.861Z,100374.25
2023-12-09T03:53:44.753Z,100372.47
2023-12-09T03:56:14.582Z,100328.56
2023-12-09T03:58:41.332Z,100343.28
2023-12-09T04:01:08.055Z,100334.53
2023-12-09T04:03:34.661Z,100325.00
2023-12-09T04:06:02.391Z,100356.84
2023-12-09T04:08:28.864Z,100334.41
2023-12-09T04:10:55.261Z,100301.84
2023-12-09T04:13:21.826Z,100337.72
2023-12-09T04:15:48.263Z,100338.53
2023-12-09T04:18:14.952Z,100349.63
2023-12-09T04:20:41.682Z,100334.00
2023-12-09T04:23:08.163Z,100322.19
2023-12-09T04:25:34.540Z,100318.53
2023-12-09T04:28:01.023Z,100268.59
2023-12-09T04:30:27.403Z,100211.03
2023-12-09T04:32:53.956Z,100273.84
2023-12-09T04:35:20.394Z,100289.41
2023-12-09T04:37:46.811Z,100326.41
2023-12-09T04:40:15.184Z,100337.75
2023-12-09T04:42:42.974Z,100327.28
2023-12-09T04:45:09.912Z,100337.66
2023-12-09T04:47:37.992Z,100334.84
2023-12-09T04:50:05.831Z,100287.59
2023-12-09T04:52:32.208Z,100328.13
2023-12-09T04:54:58.613Z,100303.22
2023-12-09T04:57:25.330Z,100269.53
2023-12-09T04:59:51.817Z,100284.16
2023-12-09T05:02:21.589Z,100301.31
2023-12-09T05:04:48.107Z,100271.88
2023-12-09T05:07:15.405Z,100277.88
2023-12-09T05:09:42.147Z,100201.31
2023-12-09T05:12:08.707Z,100278.59
2023-12-09T05:14:35.094Z,100300.06
2023-12-09T05:17:01.968Z,100287.19
2023-12-09T05:19:28.441Z,100309.72
2023-12-09T05:21:54.985Z,100287.06
2023-12-09T05:24:21.476Z,100224.19
2023-12-09T05:26:48.046Z,100255.97
2023-12-09T05:29:14.433Z,100059.31
2023-12-09T05:31:41.852Z,100266.16
2023-12-09T05:34:09.328Z,100220.94
2023-12-09T05:36:37.858Z,100283.53
2023-12-09T05:39:04.698Z,100264.63
2023-12-09T05:41:31.120Z,100266.47
2023-12-09T05:43:57.494Z,100237.44
2023-12-09T05:46:23.878Z,100245.25
2023-12-09T05:48:50.701Z,100233.13
2023-12-09T05:51:17.326Z,100228.00
2023-12-09T05:53:43.771Z,100269.06
2023-12-09T05:56:11.170Z,100198.72
2023-12-09T05:58:38.384Z,100253.59
2023-12-09T06:01:04.953Z,100252.06
2023-12-09T06:03:31.423Z,100259.84
2023-12-09T06:05:58.877Z,100217.81
2023-12-09T06:08:25.475Z,100269.28
2023-12-09T06:10:52.437Z,100265.09
2023-12-09T06:13:18.862Z,100271.03
2023-12-09T06:15:46.933Z,100244.50
2023-12-09T06:18:14.648Z,100242.75
2023-12-09T06:20:41.176Z,100249.72
2023-12-09T06:23:07.579Z,100196.50
2023-12-09T06:25:33.951Z,100224.31
2023-12-09T06:28:01.055Z,100222.44
2023-12-09T06:30:27.478Z,100179.50
2023-12-09T06:32:54.213Z,100230.81
2023-12-09T06:35:20.720Z,100240.31
2023-12-09T06:37:47.107Z,100230.72
2023-12-09T06:40:13.667Z,100192.00
2023-12-09T06:42:40.062Z,100155.25
2023-12-09T06:45:07.096Z,100227.22
2023-12-09T06:47:33.694Z,100242.69
2023-12-09T06:50:00.212Z,100215.38
2023-12-09T06:52:26.849Z,100188.78
2023-12-09T06:54:53.538Z,100197.44
2023-12-09T06:57:19.928Z,100192.31
2023-12-09T06:59:46.305Z,100203.72
2023-12-09T07:02:12.700Z,100220.66
2023-12-09T07:04:39.524Z,100247.31
2023-12-09T07:07:08.654Z,100210.34
2023-12-09T07:09:37.869Z,100209.41
2023-12-09T07:12:04.705Z,100207.78
2023-12-09T07:14:31.151Z,100134.72
2023-12-09T07:16:57.993Z,100180.84
2023-12-09T07:19:24.441Z,100142.19
2023-12-09T07:21:52.256Z,100158.50
2023-12-09T07:24:19.000Z,100130.94
2023-12-09T07:26:45.405Z,100105.91
2023-12-09T07:29:11.785Z,100004.94
2023-12-09T07:31:38.346Z,100133.31
2023-12-09T07:34:04.822Z,100115.25
2023-12-09T07:36:31.379Z,100159.22
2023-12-09T07:38:57.792Z,100109.34
2023-12-09T07:41:24.170Z,100153.94
2023-12-09T07:43:50.606Z,100132.31
2023-12-09T07:46:17.046Z,100099.16
2023-12-09T07:48:43.561Z,100084.16
2023-12-09T07:51:10.132Z,100065.25
2023-12-09T07:53:36.547Z,100109.16
2023-12-09T07:56:03.011Z,100069.00
2023-12-09T07:58:29.427Z,100045.72
2023-12-09T08:00:56.024Z,100094.50
2023-12-09T08:03:22.519Z,100110.66
2023-12-09T08:05:49.025Z,99990.69
2023-12-09T08:08:15.537Z,100113.06
2023-12-09T08:10:42.038Z,100035.72
2023-12-09T08:13:09.808Z,100054.59
2023-12-09T08:15:36.529Z,99906.25
2023-12-09T08:18:04.760Z,99862.44
2023-12-09T08:20:31.315Z,100078.38
2023-12-09T08:22:57.799Z,100008.25
2023-12-09T08:25:24.194Z,99855.34
2023-12-09T08:27:50.617Z,100075.03
2023-12-09T08:30:17.021Z,100019.09
2023-12-09T08:32:44.695Z,100049.38
2023-12-09T08:35:12.063Z,100073.22
2023-12-09T08:37:39.785Z,99940.22
2023-12-09T08:40:11.543Z,100000.84
2023-12-09T08:42:41.989Z,100034.19
2023-12-09T08:45:13.054Z,100056.41
2023-12-09T08:47:42.853Z,100063.50
2023-12-09T08:50:21.897Z,100048.81
2023-12-09T08:52:51.986Z,100054.63
2023-12-09T08:55:18.758Z,100008.28
2023-12-09T08:57:46.269Z,99990.13
2023-12-09T09:00:14.970Z,99997.81
2023-12-09T09:02:41.528Z,100060.56
2023-12-09T09:05:08.507Z,100021.66
2023-12-09T09:07:39.951Z,100039.72
2023-12-09T09:10:07.428Z,100021.41
2023-12-09T09:12:34.065Z,99970.47
2023-12-09T09:15:04.595Z,100012.34
2023-12-09T09:17:33.482Z,100012.25
2023-12-09T09:19:59.941Z,100023.09
2023-12-09T09:22:26.985Z,99849.66
2023-12-09T09:24:53.580Z,99921.13
2023-12-09T09:27:20.076Z,99942.97
2023-12-09T09:29:47.787Z,99984.13
2023-12-09T09:32:14.334Z,99983.25
2023-12-09T09:34:42.720Z,99935.22
2023-12-09T09:37:09.788Z,99970.88
2023-12-09T09:39:36.433Z,99954.34
2023-12-09T09:42:30.843Z,99942.53
2023-12-09T09:45:06.500Z,99960.03
2023-12-09T09:47:38.103Z,99937.50
2023-12-09T09:50:09.622Z,99804.81
2023-12-09T09:52:38.050Z,99868.94
2023-12-09T09:55:07.612Z,99913.16
2023-12-09T09:57:35.624Z,99905.81
2023-12-09T10:00:02.650Z,99884.38
2023-12-09T10:02:29.508Z,99852.38
2023-12-09T10:04:56.329Z,99869.09
2023-12-09T10:07:23.664Z,99744.31
2023-12-09T10:09:51.027Z,99762.59
2023-12-09T10:12:17.544Z,99880.19
2023-12-09T10:14:44.339Z,99820.47
2023-12-09T10:17:11.023Z,99855.44
2023-12-09T10:19:37.892Z,99866.38
2023-12-09T10:22:14.282Z,99845.59
2023-12-09T10:24:49.898Z,99811.84
2023-12-09T10:27:19.947Z,99745.72
2023-12-09T10:30:20.163Z,99825.03
2023-12-09T10:32:48.264Z,99814.78
2023-12-09T10:35:17.954Z,99786.75
2023-12-09T10:38:19.700Z,99813.63
2023-12-09T10:40:51.273Z,99787.31
2023-12-09T10:43:18.473Z,99775.19
2023-12-09T10:45:45.037Z,99626.75
2023-12-09T10:48:11.659Z,99663.53
2023-12-09T10:50:41.162Z,99778.31
2023-12-09T10:53:07.819Z,99782.06
2023-12-09T10:55:34.359Z,99545.34
2023-12-09T10:58:01.476Z,99682.97
2023-12-09T11:00:31.341Z,99723.88
2023-12-09T11:03:02.831Z,99720.97
2023-12-09T11:05:30.294Z,99713.69
2023-12-09T11:07:58.737Z,99574.66
2023-12-09T11:10:25.457Z,99426.38
2023-12-09T11:12:51.927Z,99694.28
2023-12-09T11:15:29.524Z,99681.84
2023-12-09T11:17:56.839Z,99634.19
2023-12-09T11:20:26.070Z,99591.81
2023-12-09T11:22:55.311Z,99623.91
2023-12-09T11:25:23.830Z,99423.41
2023-12-09T11:27:52.167Z,99465.16
2023-12-09T11:30:38.438Z,99605.09
2023-12-09T11:33:06.118Z,99597.44
2023-12-09T11:35:36.833Z,99456.19
2023-12-09T11:38:06.402Z,99534.91
2023-12-09T11:40:33.912Z,99460.38
2023-12-09T11:43:02.448Z,99550.09
2023-12-09T11:45:30.867Z,99409.28
2023-12-09T11:48:20.077Z,99428.31
2023-12-09T11:50:48.353Z,99392.81
2023-12-09T11:53:16.026Z,99513.34
2023-12-09T11:55:42.582Z,99432.94
2023-12-09T11:58:14.361Z,99512.03
2023-12-09T12:01:08.456Z,99529.22
2023-12-09T12:03:35.512Z,99476.72
2023-12-09T12:06:04.632Z,99398.06
2023-12-09T12:08:31.235Z,99313.69
2023-12-09T12:10:57.945Z,99441.03
2023-12-09T12:13:27.110Z,99353.78
2023-12-09T12:15:56.101Z,99376.59
2023-12-09T12:18:25.805Z,99321.19
2023-12-09T12:20:52.507Z,99406.00
2023-12-09T12:23:29.970Z,99200.06
2023-12-09T12:26:00.006Z,99424.25
2023-12-09T12:28:27.146Z,99406.44
2023-12-09T12:30:55.912Z,99353.53
2023-12-09T12:33:23.722Z,99229.47
2023-12-09T12:35:54.521Z,99212.22
2023-12-09T12:38:25.023Z,99207.25
2023-12-09T12:40:52.593Z,99114.41
2023-12-09T12:43:20.221Z,99306.34
2023-12-09T12:45:51.649Z,99280.19
2023-12-09T12:48:19.096Z,99314.97
2023-12-09T12:50:49.172Z,99283.19
2023-12-09T12:53:18.765Z,99185.78
2023-12-09T12:55:45.862Z,99312.03
2023-12-09T12:58:12.573Z,99161.94
2023-12-09T13:00:40.183Z,99246.34
2023-12-09T13:03:08.305Z,99140.47
2023-12-09T13:05:35.737Z,99206.31
2023-12-09T13:08:02.421Z,99049.97
2023-12-09T13:10:28.781Z,99057.81
2023-12-09T13:12:56.041Z,99190.09
2023-12-09T13:15:22.662Z,99005.16
2023-12-09T13:17:51.007Z,99088.41
2023-12-09T13:20:17.851Z,99180.56
2023-12-09T13:22:46.825Z,98856.75
2023-12-09T13:25:15.019Z,99119.59
2023-12-09T13:27:43.047Z,99124.63
2023-12-09T13:30:10.419Z,99127.34
2023-12-09T13:32:42.257Z,99128.47
2023-12-09T13:35:11.759Z,99139.19
2023-12-09T13:37:39.425Z,98961.13
2023-12-09T13:40:11.250Z,99114.03
2023-12-09T13:42:38.834Z,99081.53
2023-12-09T13:45:06.790Z,98957.50
2023-12-09T13:47:33.425Z,98830.31
2023-12-09T13:50:15.248Z,98918.81
2023-12-09T13:52:42.544Z,98977.59
2023-12-09T13:55:12.065Z,98801.81
2023-12-09T13:57:40.931Z,98904.78
2023-12-09T14:00:09.381Z,98947.13
2023-12-09T14:02:41.431Z,98800.13
2023-12-09T14:05:14.849Z,98706.81
2023-12-09T14:07:45.600Z,98747.38
2023-12-09T14:10:13.767Z,98746.06
2023-12-09T14:12:45.044Z,98740.75
2023-12-09T14:15:15.200Z,98786.03
2023-12-09T14:17:43.559Z,98676.22
2023-12-09T14:20:16.842Z,98913.19
2023-12-09T14:22:47.023Z,98826.69
2023-12-09T14:25:14.077Z,98761.69
2023-12-09T14:27:43.825Z,98918.03
2023-12-09T14:30:12.701Z,98890.94
2023-12-09T14:32:39.851Z,98876.75
2023-12-09T14:35:09.306Z,98840.59
2023-12-09T14:37:36.913Z,98786.63
2023-12-09T14:40:06.179Z,98803.31
2023-12-09T14:42:33.075Z,98631.91
2023-12-09T14:44:59.488Z,98730.03
2023-12-09T14:47:28.271Z,98729.78
2023-12-09T14:49:54.889Z,98795.94
2023-12-09T14:52:22.752Z,98745.16
2023-12-09T14:54:49.275Z,98813.88
2023-12-09T14:57:16.614Z,98598.75
2023-12-09T14:59:43.298Z,98676.31
2023-12-09T15:02:18.978Z,98596.03
2023-12-09T15:04:47.851Z,98579.19
2023-12-09T15:07:14.405Z,98615.25
2023-12-09T15:09:40.932Z,98741.88
2023-12-09T15:12:07.495Z,98671.69
2023-12-09T15:14:33.985Z,98765.78
2023-12-09T15:17:00.602Z,98697.69
2023-12-09T15:19:27.111Z,98796.72
2023-12-09T15:21:53.771Z,98788.59
2023-12-09T15:24:35.094Z,98564.75
2023-12-09T15:27:06.914Z,98627.69
2023-12-09T15:29:33.566Z,98727.47
2023-12-09T15:32:00.150Z,98547.13
2023-12-09T15:34:31.761Z,98605.47
2023-12-09T15:36:58.928Z,98595.25
2023-12-09T15:39:26.787Z,98637.44
2023-12-09T15:41:53.491Z,98738.34
2023-12-09T15:44:21.069Z,98684.97
2023-12-09T15:46:51.744Z,98424.97
2023-12-09T15:49:18.329Z,98567.75
2023-12-09T15:51:47.537Z,98516.25
2023-12-09T15:54:15.460Z,98572.41
2023-12-09T15:56:45.077Z,98588.94
2023-12-09T15:59:13.784Z,98645.53
2023-12-09T16:01:40.595Z,98516.97
2023-12-09T16:04:08.804Z,98657.91
2023-12-09T16:06:35.396Z,98558.91
2023-12-09T16:09:04.694Z,98543.19
2023-12-09T16:11:32.567Z,98521.41
2023-12-09T16:13:59.042Z,98533.53
2023-12-09T16:16:25.747Z,98603.06
2023-12-09T16:18:55.729Z,98527.81
2023-12-09T16:21:23.319Z,98618.66
2023-12-09T16:23:50.206Z,98586.31
2023-12-09T16:26:17.074Z,98537.44
2023-12-09T16:28:45.508Z,98541.63
2023-12-09T16:31:14.988Z,98627.25
2023-12-09T16:33:41.732Z,98507.53
2023-12-09T16:36:09.204Z,98585.91
2023-12-09T16:38:35.800Z,98613.97
2023-12-09T16:41:02.747Z,98360.06
2023-12-09T16:43:29.179Z,98554.78
2023-12-09T16:45:56.437Z,98492.28
2023-12-09T16:48:23.364Z,98529.72
2023-12-09T16:50:49.900Z,98500.03
2023-12-09T16:53:18.966Z,98536.25
2023-12-09T16:55:45.883Z,98507.59
2023-12-09T16:58:12.960Z,98365.53
2023-12-09T17:00:39.575Z,98559.41
2023-12-09T17:03:06.140Z,98517.41
2023-12-09T17:05:32.877Z,98628.13
2023-12-09T17:07:59.440Z,98478.00
2023-12-09T17:10:25.905Z,98450.81
2023-12-09T17:12:53.473Z,98551.84
2023-12-09T17:15:20.325Z,98433.47
2023-12-09T17:17:50.061Z,98536.91
2023-12-09T17:20:17.104Z,98480.31
2023-12-09T17:22:49.351Z,98487.06
2023-12-09T17:25:17.852Z,98385.63
2023-12-09T17:27:44.760Z,98338.53
2023-12-09T17:33:57.499Z,98558.16
2023-12-09T17:36:28.938Z,98384.53
2023-12-09T17:38:56.018Z,98523.72
2023-12-09T17:41:23.040Z,98470.53
2023-12-09T17:43:49.970Z,98484.44
2023-12-09T17:46:17.488Z,98541.13
2023-12-09T17:48:46.234Z,98492.78
2023-12-09T17:51:12.818Z,98447.94
2023-12-09T17:53:39.307Z,98437.16
2023-12-09T17:56:08.458Z,98479.59
2023-12-09T17:58:34.969Z,98593.03
2023-12-09T18:01:01.712Z,98465.34
2023-12-09T18:03:28.316Z,98613.13
2023-12-09T18:05:55.640Z,98312.75
2023-12-09T18:08:31.180Z,98623.63
2023-12-09T18:13:52.310Z,98592.91
2023-12-09T18:20:06.204Z,98599.53
2023-12-09T18:22:41.245Z,98598.06
2023-12-09T18:25:25.806Z,98601.53
2023-12-09T18:27:57.246Z,98590.06
2023-12-09T18:30:29.415Z,98615.38
2023-12-09T18:32:56.953Z,98576.91
2023-12-09T18:35:23.513Z,98579.75
2023-12-09T18:37:50.419Z,98600.88
2023-12-09T18:40:17.126Z,98597.94
2023-12-09T18:42:43.850Z,98555.00
2023-12-09T18:45:10.399Z,98593.31
2023-12-09T18:47:37.338Z,98585.19
2023-12-09T18:52:31.633Z,98481.03
2023-12-09T18:54:58.146Z,98578.81
2023-12-09T18:57:24.918Z,98579.97
2023-12-09T18:59:51.684Z,98612.56
2023-12-09T19:02:19.543Z,98639.25
2023-12-09T19:04:46.239Z,98624.97
2023-12-09T19:07:13.502Z,98493.41
2023-12-09T19:09:40.398Z,98518.44
2023-12-09T19:12:07.404Z,98599.09
2023-12-09T19:14:33.879Z,98615.13
2023-12-09T19:17:01.142Z,98495.78
2023-12-09T19:19:34.167Z,98630.94
2023-12-09T19:22:01.131Z,98664.72
2023-12-09T19:24:27.863Z,98678.78
2023-12-09T19:26:54.355Z,98671.31
2023-12-09T19:29:20.986Z,98640.41
2023-12-09T19:31:47.727Z,98654.50
2023-12-09T19:34:14.302Z,98669.41
2023-12-09T19:36:46.085Z,98640.19
2023-12-09T19:39:13.294Z,98650.75
2023-12-09T19:41:39.802Z,98674.16
2023-12-09T19:44:06.372Z,98712.69
2023-12-09T19:46:33.024Z,98704.22
2023-12-09T19:48:59.572Z,98583.03
2023-12-09T19:51:26.276Z,98534.22
2023-12-09T19:53:52.844Z,98713.50
2023-12-09T19:56:19.360Z,98621.78
2023-12-09T19:58:46.209Z,98740.97
2023-12-09T20:01:12.737Z,98745.97
2023-12-09T20:03:39.560Z,98745.97
2023-12-09T20:06:07.101Z,98806.69
2023-12-09T20:08:33.751Z,98741.16
2023-12-09T20:11:00.776Z,98788.25
2023-12-09T20:13:27.376Z,98770.00
2023-12-09T20:15:54.162Z,98772.75
2023-12-09T20:18:20.950Z,98834.56
2023-12-09T20:20:47.800Z,98837.66
2023-12-09T20:23:14.791Z,98674.75
2023-12-09T20:25:41.278Z,98819.63
2023-12-09T20:28:08.003Z,98842.34
2023-12-09T20:30:39.188Z,98815.84
2023-12-09T20:33:07.575Z,98893.03
2023-12-09T20:35:34.438Z,98768.63
2023-12-09T20:38:02.648Z,98894.13
2023-12-09T20:40:29.300Z,98785.28
2023-12-09T20:42:56.072Z,98954.63
2023-12-09T20:45:23.102Z,98906.34
2023-12-09T20:47:49.689Z,98923.91
2023-12-09T20:50:16.565Z,98895.81
2023-12-09T20:52:43.009Z,98947.38
2023-12-09T20:55:09.825Z,98832.28
2023-12-09T20:57:36.447Z,98978.03
2023-12-09T21:00:03.795Z,98833.13
2023-12-09T21:02:30.794Z,98953.63
2023-12-09T21:04:58.148Z,98964.25
2023-12-09T21:07:24.706Z,98972.41
2023-12-09T21:09:51.461Z,98971.16
2023-12-09T21:12:18.129Z,98995.72
2023-12-09T21:14:44.695Z,98919.50
2023-12-09T21:17:11.094Z,98997.50
2023-12-09T21:19:38.478Z,98925.31
2023-12-09T21:22:05.318Z,99017.50
2023-12-09T21:24:32.337Z,99015.84
2023-12-09T21:26:59.053Z,99036.41
2023-12-09T21:29:25.768Z,98991.41
2023-12-09T21:31:52.404Z,99034.56
2023-12-09T21:34:19.228Z,99045.66
2023-12-09T21:36:46.338Z,98969.78
2023-12-09T21:39:13.133Z,99004.63
2023-12-09T21:41:39.842Z,99004.41
2023-12-09T21:44:06.491Z,99032.91
2023-12-09T21:46:32.945Z,99053.78
2023-12-09T21:48:59.915Z,99058.22
2023-12-09T21:51:26.690Z,98911.72
2023-12-09T21:53:53.137Z,98986.47
2023-12-09T21:56:22.173Z,99100.06
2023-12-09T21:58:50.128Z,99114.41
2023-12-09T22:01:20.497Z,99099.06
2023-12-09T22:03:47.797Z,99120.97
2023-12-09T22:06:14.617Z,99081.22
2023-12-09T22:08:42.593Z,99128.28
2023-12-09T22:11:12.978Z,99058.69
2023-12-09T22:13:40.378Z,99131.28
2023-12-09T22:16:20.905Z,98977.94
2023-12-09T22:18:48.926Z,99142.72
2023-12-09T22:21:15.829Z,99165.13
2023-12-09T22:23:42.480Z,99173.53
2023-12-09T22:26:09.152Z,99045.84
2023-12-09T22:28:39.839Z,99154.59
2023-12-09T22:31:09.132Z,99009.28
2023-12-09T22:33:37.309Z,99173.53
2023-12-09T22:36:04.024Z,99146.09
2023-12-09T22:38:30.398Z,99170.69
2023-12-09T22:40:57.010Z,99192.78
2023-12-09T22:43:23.459Z,99206.34
2023-12-09T22:45:51.470Z,98948.31
2023-12-09T22:48:18.219Z,99209.41
2023-12-09T22:50:44.749Z,99186.78
2023-12-09T22:53:11.150Z,98956.66
2023-12-09T22:55:37.633Z,99217.66
2023-12-09T22:58:04.083Z,99206.63
2023-12-09T23:00:34.334Z,99187.69
2023-12-09T23:03:04.041Z,99199.38
2023-12-09T23:05:30.627Z,99224.22
2023-12-09T23:07:57.207Z,99200.72
2023-12-09T23:10:23.806Z,99090.59
2023-12-09T23:12:50.352Z,99214.41
2023-12-09T23:15:17.335Z,99237.59
2023-12-09T23:17:43.816Z,99290.66
2023-12-09T23:20:10.590Z,99244.16
2023-12-09T23:22:37.070Z,99265.78
2023-12-09T23:25:03.857Z,99161.41
2023-12-09T23:27:30.330Z,99236.69
2023-12-09T23:29:56.776Z,99270.53
2023-12-09T23:32:23.441Z,99253.72
2023-12-09T23:34:49.980Z,99275.78
2023-12-09T23:37:16.453Z,99035.53
2023-12-09T23:39:42.909Z,99278.78
2023-12-09T23:42:09.340Z,99120.13
2023-12-09T23:44:35.760Z,99295.19
2023-12-09T23:47:02.289Z,99295.78
2023-12-09T23:49:28.767Z,99235.59
2023-12-09T23:51:55.294Z,99283.75
2023-12-09T23:54:21.784Z,99288.38
2023-12-09T23:56:48.154Z,99292.47
2023-12-09T23:59:15.035Z,99288.72
